Time;durP1;ratioP1;P1;durP2;ratioP2;P2;SDS_P1;SDS_P2;PMS_P1;PMS_P2;Temp;Humidity;BMP_temperature;BMP_pressure;BME280_temperature;BME280_humidity;BME280_pressure;Samples;Min_cycle;Max_cycle;Signal;HPM_P1;HPM_P2
2022/06/24 00:01:59;;;;;;;8.95;1.85;;;21.20;99.90;;;;;;4995844;28;20086;-80
2022/06/24 00:04:29;;;;;;;5.78;1.75;;;21.20;99.90;;;;;;4994367;28;20063;-80
2022/06/24 00:06:56;;;;;;;5.97;1.87;;;21.20;99.90;;;;;;4993762;28;20082;-81
2022/06/24 00:09:30;;;;;;;4.18;1.73;;;21.10;99.90;;;;;;4994477;28;20268;-79
2022/06/24 00:12:08;;;;;;;6.35;1.85;;;21.10;99.90;;;;;;4995693;28;20050;-79
2022/06/24 00:14:36;;;;;;;5.57;2.20;;;21.00;99.90;;;;;;4994773;28;20427;-79
2022/06/24 00:17:11;;;;;;;8.30;2.58;;;21.00;99.90;;;;;;4995270;28;20054;-81
2022/06/24 00:19:56;;;;;;;3.75;1.80;;;20.90;99.90;;;;;;4991550;28;20058;-80
2022/06/24 00:22:24;;;;;;;6.30;2.08;;;20.80;99.90;;;;;;4992465;28;20086;-79
2022/06/24 00:25:16;;;;;;;6.80;2.40;;;20.80;99.90;;;;;;4994969;28;20089;-79
2022/06/24 00:28:10;;;;;;;5.50;1.80;;;20.80;99.90;;;;;;4993595;28;20271;-80
2022/06/24 00:30:38;;;;;;;4.85;2.13;;;20.80;99.90;;;;;;4995441;28;20081;-80
2022/06/24 00:33:22;;;;;;;7.60;2.55;;;20.80;99.90;;;;;;4990320;28;20150;-80
2022/06/24 00:36:01;;;;;;;5.70;1.92;;;20.70;99.90;;;;;;5007346;28;20501;-79
2022/06/24 00:38:29;;;;;;;8.27;2.15;;;20.70;99.90;;;;;;4991643;28;20099;-79
2022/06/24 00:41:02;;;;;;;7.45;2.28;;;20.70;99.90;;;;;;5008486;28;20070;-79
2022/06/24 00:43:43;;;;;;;10.07;2.40;;;20.70;99.90;;;;;;4993839;28;20078;-79
2022/06/24 00:46:25;;;;;;;7.07;2.65;;;20.60;99.90;;;;;;4991108;28;20049;-79
2022/06/24 00:48:55;;;;;;;6.10;2.30;;;20.50;99.90;;;;;;4990000;28;20081;-80
2022/06/24 00:51:23;;;;;;;7.18;2.15;;;20.50;99.90;;;;;;4989061;28;20070;-79
2022/06/24 00:53:52;;;;;;;7.40;2.17;;;20.50;99.90;;;;;;4991340;28;20058;-80
2022/06/24 00:56:22;;;;;;;7.32;2.45;;;20.50;99.90;;;;;;4991701;28;20050;-79
2022/06/24 00:59:00;;;;;;;6.53;2.83;;;20.40;99.90;;;;;;4990660;28;20058;-80
2022/06/24 01:01:33;;;;;;;11.45;2.83;;;20.50;99.90;;;;;;4990454;28;20306;-79
2022/06/24 01:04:01;;;;;;;10.82;2.53;;;20.40;99.90;;;;;;4992282;28;20114;-79
2022/06/24 01:06:29;;;;;;;12.85;3.40;;;20.40;99.90;;;;;;4991433;28;20043;-79
2022/06/24 01:08:56;;;;;;;6.97;2.58;;;20.40;99.90;;;;;;4992211;28;20057;-79
2022/06/24 01:11:27;;;;;;;11.55;2.85;;;20.40;99.90;;;;;;4991420;28;20491;-79
2022/06/24 01:13:55;;;;;;;9.50;2.40;;;20.40;99.90;;;;;;4995583;28;20126;-79
2022/06/24 01:16:23;;;;;;;9.23;2.60;;;20.40;99.90;;;;;;4991600;28;20057;-79
2022/06/24 01:18:57;;;;;;;5.75;2.78;;;20.40;99.90;;;;;;4992562;28;20046;-79
2022/06/24 01:21:36;;;;;;;10.65;3.20;;;20.40;99.90;;;;;;4991563;28;20089;-79
2022/06/24 01:24:23;;;;;;;11.07;2.95;;;20.30;99.90;;;;;;4990405;28;20078;-79
2022/06/24 01:26:55;;;;;;;5.03;2.38;;;20.20;99.90;;;;;;4989047;28;20105;-80
2022/06/24 01:29:23;;;;;;;11.88;3.05;;;20.10;99.90;;;;;;4990134;28;20133;-80
2022/06/24 01:31:53;;;;;;;12.70;2.35;;;20.10;99.90;;;;;;4991420;28;20089;-80
2022/06/24 01:34:21;;;;;;;8.05;2.58;;;20.10;99.90;;;;;;4996168;28;20133;-80
2022/06/24 01:36:49;;;;;;;6.68;3.00;;;20.20;99.90;;;;;;4993801;28;20057;-79
2022/06/24 01:39:15;;;;;;;7.43;2.50;;;20.10;99.90;;;;;;4992592;28;20050;-80
2022/06/24 01:41:42;;;;;;;5.80;2.47;;;20.20;99.90;;;;;;4991618;28;20118;-81
2022/06/24 01:44:09;;;;;;;9.60;2.65;;;20.20;99.90;;;;;;4994211;28;20161;-80
2022/06/24 01:46:36;;;;;;;10.23;2.60;;;20.30;99.90;;;;;;4998147;28;20131;-80
2022/06/24 01:49:04;;;;;;;6.28;2.78;;;20.30;99.90;;;;;;4982807;28;20050;-81
2022/06/24 01:51:33;;;;;;;6.05;3.13;;;20.20;99.90;;;;;;4982752;28;20146;-80
2022/06/24 01:54:00;;;;;;;7.80;2.78;;;20.30;99.90;;;;;;4984503;28;20047;-79
2022/06/24 01:56:26;;;;;;;11.63;2.65;;;20.30;99.90;;;;;;4998745;28;20054;-80
2022/06/24 01:58:53;;;;;;;8.48;2.38;;;20.20;99.90;;;;;;4990042;28;20051;-81
2022/06/24 02:01:20;;;;;;;5.85;2.38;;;20.20;99.90;;;;;;4990941;28;20046;-79
2022/06/24 02:03:47;;;;;;;7.97;2.78;;;20.20;99.90;;;;;;4991658;28;20046;-79
2022/06/24 02:06:14;;;;;;;9.45;3.13;;;20.20;99.90;;;;;;4986125;28;20078;-79
2022/06/24 02:08:41;;;;;;;8.27;2.60;;;20.20;99.90;;;;;;4984699;28;20133;-79
2022/06/24 02:14:03;;;;;;;7.15;2.40;;;20.10;99.90;;;;;;4986016;28;20081;-78
2022/06/24 02:16:30;;;;;;;8.73;2.45;;;20.00;99.90;;;;;;4987793;28;20050;-78
2022/06/24 02:18:57;;;;;;;10.05;2.55;;;20.00;99.90;;;;;;4985350;28;20057;-78
2022/06/24 02:21:25;;;;;;;7.72;2.65;;;20.00;99.90;;;;;;4986357;28;20047;-78
2022/06/24 02:23:52;;;;;;;6.75;2.10;;;20.00;99.90;;;;;;4988393;28;20135;-78
2022/06/24 02:26:20;;;;;;;6.80;2.58;;;20.00;99.90;;;;;;5001542;28;20133;-78
2022/06/24 02:28:47;;;;;;;11.05;2.38;;;20.00;99.90;;;;;;4988461;28;20488;-79
2022/06/24 02:31:14;;;;;;;9.63;2.38;;;20.00;99.90;;;;;;4985745;28;20138;-78
2022/06/24 02:33:41;;;;;;;9.57;2.90;;;20.00;99.90;;;;;;4985513;28;20394;-78
2022/06/24 02:36:08;;;;;;;13.65;3.47;;;20.10;99.90;;;;;;4989519;28;20054;-79
2022/06/24 02:38:35;;;;;;;5.10;2.55;;;20.10;99.90;;;;;;4985215;28;20079;-78
2022/06/24 02:41:09;;;;;;;10.05;2.72;;;20.10;99.90;;;;;;4985786;28;20471;-78
2022/06/24 02:43:37;;;;;;;8.35;2.78;;;20.10;99.90;;;;;;4988355;28;20053;-78
2022/06/24 02:46:13;;;;;;;9.65;2.08;;;20.10;99.90;;;;;;4985924;28;20050;-78
2022/06/24 02:48:42;;;;;;;10.73;3.35;;;20.10;99.90;;;;;;4985743;28;20046;-78
2022/06/24 02:51:13;;;;;;;13.00;3.50;;;20.00;99.90;;;;;;4987169;28;20050;-79
2022/06/24 02:53:41;;;;;;;10.95;2.78;;;20.00;99.90;;;;;;4988187;28;20058;-78
2022/06/24 02:56:10;;;;;;;9.63;2.85;;;20.00;99.90;;;;;;4985737;28;20054;-78
2022/06/24 02:58:37;;;;;;;12.40;3.03;;;20.00;99.90;;;;;;4985889;28;20129;-79
2022/06/24 03:01:04;;;;;;;10.43;3.20;;;20.00;99.90;;;;;;4984282;28;20047;-78
2022/06/24 03:03:32;;;;;;;9.13;2.60;;;19.80;99.90;;;;;;4987013;28;20058;-78
2022/06/24 03:05:59;;;;;;;7.50;3.00;;;19.80;99.90;;;;;;4986331;28;20051;-78
2022/06/24 03:08:26;;;;;;;8.40;2.97;;;19.90;99.90;;;;;;5006425;28;20125;-79
2022/06/24 03:10:55;;;;;;;8.60;2.50;;;19.90;99.90;;;;;;5008033;28;20039;-84
2022/06/24 03:13:22;;;;;;;11.02;2.75;;;19.80;99.90;;;;;;5007250;28;20034;-79
2022/06/24 03:15:49;;;;;;;8.43;2.50;;;19.80;99.90;;;;;;5008035;28;20081;-81
2022/06/24 03:18:16;;;;;;;7.03;2.58;;;19.70;99.90;;;;;;5005027;28;20062;-83
2022/06/24 03:20:44;;;;;;;6.65;2.47;;;19.70;99.90;;;;;;5008392;28;20057;-83
2022/06/24 03:23:14;;;;;;;9.35;2.72;;;19.70;99.90;;;;;;5006670;28;20045;-79
2022/06/24 03:25:41;;;;;;;10.88;2.60;;;19.70;99.90;;;;;;5007685;28;20058;-83
2022/06/24 03:28:08;;;;;;;12.05;2.88;;;19.70;99.90;;;;;;5006545;28;20045;-79
2022/06/24 03:30:35;;;;;;;9.43;2.10;;;19.70;99.90;;;;;;5007041;28;20035;-79
2022/06/24 03:33:02;;;;;;;8.25;2.75;;;19.70;99.90;;;;;;5002715;28;20074;-81
2022/06/24 03:35:29;;;;;;;8.88;2.58;;;19.70;99.90;;;;;;4993877;28;20134;-81
2022/06/24 03:37:56;;;;;;;9.95;2.60;;;19.70;99.90;;;;;;4990722;28;20062;-80
2022/06/24 03:40:23;;;;;;;8.52;2.55;;;19.70;99.90;;;;;;4989040;28;20061;-78
2022/06/24 03:42:50;;;;;;;6.93;2.45;;;19.70;99.90;;;;;;4984745;28;20077;-80
2022/06/24 03:45:17;;;;;;;10.90;2.47;;;19.70;99.90;;;;;;4990827;28;20046;-79
2022/06/24 03:47:44;;;;;;;8.05;2.67;;;19.80;99.90;;;;;;4988946;28;20068;-79
2022/06/24 03:50:10;;;;;;;6.35;2.60;;;19.80;99.90;;;;;;4991061;28;20090;-79
2022/06/24 03:52:37;;;;;;;11.10;2.72;;;19.80;99.90;;;;;;4989018;28;20113;-80
2022/06/24 03:55:04;;;;;;;6.20;2.05;;;19.80;99.90;;;;;;4990643;28;20054;-82
2022/06/24 03:57:31;;;;;;;5.32;2.17;;;19.80;99.90;;;;;;4990047;28;20195;-79
2022/06/24 03:59:58;;;;;;;7.18;2.45;;;19.80;99.90;;;;;;4988954;28;20050;-82
2022/06/24 04:02:24;;;;;;;5.32;1.85;;;19.80;99.90;;;;;;4991828;28;20086;-81
2022/06/24 04:04:51;;;;;;;3.67;1.92;;;19.90;99.90;;;;;;4986878;28;20519;-79
2022/06/24 04:07:18;;;;;;;8.13;1.90;;;20.00;99.90;;;;;;4992005;28;20054;-80
2022/06/24 04:09:44;;;;;;;6.75;1.88;;;20.10;99.90;;;;;;4980630;28;20074;-79
2022/06/24 04:12:12;;;;;;;8.48;2.60;;;20.20;99.90;;;;;;4978683;28;20104;-81
2022/06/24 04:17:24;;;;;;;8.93;2.28;;;20.30;99.90;;;;;;4982478;28;20054;-79
2022/06/24 04:19:52;;;;;;;6.93;2.22;;;20.30;99.90;;;;;;4987142;28;20146;-79
2022/06/24 04:22:20;;;;;;;6.20;2.17;;;20.30;99.90;;;;;;4989787;28;20051;-79
2022/06/24 04:24:47;;;;;;;8.30;2.80;;;20.30;99.90;;;;;;4987993;28;20146;-79
2022/06/24 04:27:14;;;;;;;4.88;2.30;;;20.40;99.90;;;;;;4989648;28;20121;-79
2022/06/24 04:29:41;;;;;;;7.93;1.77;;;20.50;99.90;;;;;;4988773;28;20090;-79
2022/06/24 04:32:08;;;;;;;6.80;2.20;;;20.60;99.90;;;;;;4990800;28;20050;-79
2022/06/24 04:34:37;;;;;;;7.80;2.28;;;20.60;99.90;;;;;;4993787;28;20054;-79
2022/06/24 04:37:04;;;;;;;7.07;2.17;;;20.70;99.90;;;;;;4991464;28;20057;-79
2022/06/24 04:39:31;;;;;;;5.65;2.08;;;20.80;99.90;;;;;;4993052;28;20555;-79
2022/06/24 04:41:58;;;;;;;8.85;2.15;;;20.90;99.90;;;;;;4988882;28;20078;-79
2022/06/24 04:44:24;;;;;;;8.30;2.38;;;20.90;99.90;;;;;;4992767;28;20089;-79
2022/06/24 04:46:51;;;;;;;11.95;2.70;;;21.00;99.90;;;;;;4991081;28;20047;-78
2022/06/24 04:49:18;;;;;;;9.75;2.65;;;21.10;99.90;;;;;;4991321;28;20042;-79
2022/06/24 04:51:44;;;;;;;9.38;2.72;;;21.10;99.90;;;;;;4991555;28;20070;-79
2022/06/24 04:54:11;;;;;;;11.07;2.60;;;21.20;99.90;;;;;;4991129;28;20106;-79
2022/06/24 04:56:38;;;;;;;10.15;2.85;;;21.30;99.90;;;;;;4990458;28;20093;-79
2022/06/24 04:59:04;;;;;;;11.65;3.55;;;21.40;99.90;;;;;;5006086;28;20050;-79
2022/06/24 05:01:31;;;;;;;7.68;2.42;;;21.50;99.90;;;;;;4992982;28;20047;-79
2022/06/24 05:04:01;;;;;;;10.43;2.40;;;21.60;99.90;;;;;;4994561;28;20067;-79
2022/06/24 05:06:28;;;;;;;;;;;21.70;99.90;;;;;;4993176;28;20567;-79
2022/06/24 05:08:55;;;;;;;5.78;2.28;;;21.80;99.90;;;;;;4991264;28;20008;-79
2022/06/24 05:11:22;;;;;;;12.95;2.75;;;21.80;99.90;;;;;;4994019;28;20079;-80
2022/06/24 05:13:49;;;;;;;8.45;2.30;;;21.90;99.90;;;;;;5001643;28;20046;-79
2022/06/24 05:16:15;;;;;;;11.32;2.42;;;21.90;99.90;;;;;;4991454;28;20061;-79
2022/06/24 05:19:02;;;;;;;5.40;1.92;;;21.90;99.90;;;;;;4995796;28;20060;-79
2022/06/24 05:21:29;;;;;;;6.75;2.17;;;21.90;99.90;;;;;;4992607;28;20435;-79
2022/06/24 05:23:55;;;;;;;9.35;2.92;;;21.90;99.90;;;;;;4993070;28;20090;-79
2022/06/24 05:26:22;;;;;;;8.63;2.47;;;21.90;99.90;;;;;;4993621;28;20110;-79
2022/06/24 05:28:49;;;;;;;4.20;1.75;;;22.00;99.90;;;;;;4993614;28;20137;-81
2022/06/24 05:31:15;;;;;;;9.85;2.67;;;22.10;99.90;;;;;;4994875;28;20061;-79
2022/06/24 05:33:42;;;;;;;11.90;3.17;;;22.10;99.90;;;;;;4994869;28;20106;-79
2022/06/24 05:36:09;;;;;;;9.43;2.03;;;22.20;99.90;;;;;;5018760;28;20121;-79
2022/06/24 05:38:36;;;;;;;12.25;2.97;;;22.20;99.90;;;;;;5001634;28;20105;-79
2022/06/24 05:41:09;;;;;;;7.80;2.28;;;22.20;99.90;;;;;;4991916;28;20061;-80
2022/06/24 05:43:35;;;;;;;6.60;2.15;;;22.20;99.90;;;;;;4996258;28;20077;-82
2022/06/24 05:46:02;;;;;;;5.82;2.03;;;22.30;99.90;;;;;;4992225;28;20102;-79
2022/06/24 05:48:30;;;;;;;7.00;2.17;;;22.30;99.90;;;;;;4995025;28;20057;-80
2022/06/24 05:50:57;;;;;;;8.52;2.55;;;22.30;99.90;;;;;;4991643;28;20078;-80
2022/06/24 05:56:09;;;;;;;8.32;2.50;;;22.20;99.90;;;;;;4991490;28;20050;-79
2022/06/24 05:58:36;;;;;;;7.03;2.05;;;22.10;99.90;;;;;;4989546;28;20054;-79
2022/06/24 06:01:11;;;;;;;8.43;2.92;;;22.10;99.90;;;;;;4992088;28;20061;-79
2022/06/24 06:03:38;;;;;;;13.18;2.60;;;22.10;99.90;;;;;;4989245;28;20054;-78
2022/06/24 06:06:06;;;;;;;12.20;2.47;;;22.10;99.90;;;;;;4991893;28;20467;-79
2022/06/24 06:08:33;;;;;;;8.63;2.38;;;22.00;99.90;;;;;;4989721;28;20055;-80
2022/06/24 06:11:00;;;;;;;11.43;3.15;;;22.00;99.90;;;;;;4991155;28;20080;-79
2022/06/24 06:13:27;;;;;;;6.90;2.05;;;22.00;99.90;;;;;;4991412;28;20110;-79
2022/06/24 06:15:53;;;;;;;11.50;2.50;;;22.00;99.90;;;;;;4990603;28;20587;-79
2022/06/24 06:18:21;;;;;;;8.05;1.60;;;22.00;99.90;;;;;;4988048;28;20058;-79
2022/06/24 06:20:47;;;;;;;6.43;1.98;;;22.00;99.90;;;;;;4991123;28;20060;-79
2022/06/24 06:23:14;;;;;;;6.68;2.13;;;21.90;99.90;;;;;;4988434;28;20046;-78
2022/06/24 06:25:41;;;;;;;10.70;1.90;;;21.90;99.90;;;;;;4993337;28;20048;-80
2022/06/24 06:28:07;;;;;;;6.10;1.77;;;22.00;99.90;;;;;;4989464;28;20141;-79
2022/06/24 06:30:34;;;;;;;8.45;2.13;;;22.00;99.90;;;;;;4990141;28;20070;-81
2022/06/24 06:33:00;;;;;;;5.70;1.75;;;22.00;99.90;;;;;;4994407;28;20055;-81
2022/06/24 06:35:27;;;;;;;6.28;1.50;;;22.00;99.90;;;;;;4993470;28;20077;-80
2022/06/24 06:37:54;;;;;;;6.00;1.90;;;22.00;99.90;;;;;;4994026;28;20050;-82
2022/06/24 06:40:20;;;;;;;5.47;1.55;;;22.00;99.90;;;;;;4992953;28;20138;-82
2022/06/24 06:42:50;;;;;;;5.28;1.70;;;22.00;99.90;;;;;;4992388;28;20110;-81
2022/06/24 06:45:17;;;;;;;4.82;1.50;;;22.00;99.90;;;;;;4994853;28;20131;-81
2022/06/24 06:47:44;;;;;;;3.60;1.20;;;22.00;99.90;;;;;;4990827;28;20085;-80
2022/06/24 06:50:10;;;;;;;7.53;1.48;;;22.00;99.90;;;;;;4993161;28;20260;-79
2022/06/24 06:52:39;;;;;;;4.22;1.42;;;22.00;99.90;;;;;;4990986;28;20059;-80
2022/06/24 06:55:07;;;;;;;3.75;1.80;;;22.00;99.90;;;;;;4991412;28;20057;-79
2022/06/24 06:57:33;;;;;;;4.53;1.08;;;22.00;99.90;;;;;;4992124;28;20055;-80
2022/06/24 07:00:00;;;;;;;4.07;1.20;;;22.10;99.90;;;;;;4992594;28;20050;-80
2022/06/24 07:02:27;;;;;;;5.13;1.30;;;22.10;99.90;;;;;;4992615;28;20078;-79
2022/06/24 07:04:54;;;;;;;8.68;1.85;;;22.20;99.90;;;;;;4992345;28;20058;-79
2022/06/24 07:07:21;;;;;;;2.30;1.20;;;22.10;99.90;;;;;;4993972;28;20089;-80
2022/06/24 07:09:48;;;;;;;3.10;1.08;;;22.20;99.90;;;;;;4991267;28;20050;-80
2022/06/24 07:12:14;;;;;;;2.80;0.90;;;22.20;99.90;;;;;;4992813;28;20060;-79
2022/06/24 07:14:43;;;;;;;2.20;1.00;;;22.20;99.90;;;;;;4991550;28;20114;-81
2022/06/24 07:17:14;;;;;;;3.45;1.30;;;22.20;99.90;;;;;;4993548;28;20058;-80
2022/06/24 07:19:40;;;;;;;3.90;0.82;;;22.30;99.90;;;;;;4992400;28;20055;-80
2022/06/24 07:22:08;;;;;;;4.30;1.40;;;22.30;99.90;;;;;;4993107;28;20062;-81
2022/06/24 07:24:34;;;;;;;4.32;1.50;;;22.30;99.90;;;;;;4992628;28;20051;-79
2022/06/24 07:27:03;;;;;;;6.75;1.42;;;22.40;99.90;;;;;;4991907;28;20085;-79
2022/06/24 07:29:34;;;;;;;5.85;1.25;;;22.40;99.90;;;;;;4989138;28;20089;-79
2022/06/24 07:32:02;;;;;;;3.42;1.30;;;22.40;99.90;;;;;;4990932;28;20111;-80
2022/06/24 07:34:32;;;;;;;4.90;1.55;;;22.40;99.90;;;;;;4994788;28;20387;-80
2022/06/24 07:37:00;;;;;;;8.32;1.50;;;22.50;99.90;;;;;;5001111;28;20050;-79
2022/06/24 07:39:28;;;;;;;5.55;1.33;;;22.50;99.90;;;;;;4993698;28;20051;-79
2022/06/24 07:41:55;;;;;;;2.83;1.25;;;22.50;99.90;;;;;;4991677;28;20409;-79
2022/06/24 07:44:23;;;;;;;4.75;1.40;;;22.40;99.90;;;;;;4993127;28;20046;-80
2022/06/24 07:46:50;;;;;;;2.75;0.90;;;22.40;99.90;;;;;;4994618;28;20053;-80
2022/06/24 07:49:17;;;;;;;4.88;1.25;;;22.40;99.90;;;;;;4983266;28;20055;-81
2022/06/24 07:51:44;;;;;;;4.40;1.48;;;22.30;99.90;;;;;;4983077;28;20046;-80
2022/06/24 07:54:11;;;;;;;3.92;1.48;;;22.40;99.90;;;;;;4983540;28;20047;-81
2022/06/24 07:56:56;;;;;;;4.50;1.13;;;22.40;99.90;;;;;;4982360;28;20078;-80
2022/06/24 07:59:31;;;;;;;3.13;1.10;;;22.40;99.90;;;;;;4992872;28;20479;-79
2022/06/24 08:02:00;;;;;;;4.07;1.17;;;22.50;99.90;;;;;;4992517;28;20046;-79
2022/06/24 08:04:28;;;;;;;4.47;1.23;;;22.50;99.90;;;;;;4991753;28;20076;-79
2022/06/24 08:06:55;;;;;;;5.30;2.25;;;22.50;99.90;;;;;;4997323;28;20053;-80
2022/06/24 08:09:25;;;;;;;3.95;1.30;;;22.50;99.90;;;;;;4994390;28;20050;-80
2022/06/24 08:11:53;;;;;;;3.35;1.60;;;22.60;99.90;;;;;;4985820;28;20080;-79
2022/06/24 08:14:20;;;;;;;3.13;1.30;;;22.60;99.90;;;;;;4984723;28;20460;-79
2022/06/24 08:16:48;;;;;;;1.70;0.80;;;22.60;99.90;;;;;;4985211;28;20043;-80
2022/06/24 08:19:15;;;;;;;2.88;0.90;;;22.70;99.90;;;;;;4997501;28;20049;-79
2022/06/24 08:21:42;;;;;;;6.18;1.13;;;22.70;99.90;;;;;;4997133;28;20046;-79
2022/06/24 08:24:09;;;;;;;7.30;1.58;;;22.70;99.90;;;;;;4993560;28;20046;-79
2022/06/24 08:26:36;;;;;;;2.33;1.08;;;22.80;99.90;;;;;;4992805;28;20050;-79
2022/06/24 08:29:03;;;;;;;3.42;1.00;;;22.80;99.90;;;;;;4991187;28;20206;-79
2022/06/24 08:31:30;;;;;;;2.75;1.17;;;22.80;99.90;;;;;;4992293;28;20110;-79
2022/06/24 08:33:57;;;;;;;3.45;0.85;;;22.80;99.90;;;;;;4991984;28;20050;-81
2022/06/24 08:36:26;;;;;;;13.30;1.10;;;22.90;99.90;;;;;;4995487;28;20133;-80
2022/06/24 08:38:54;;;;;;;4.38;1.08;;;23.00;99.90;;;;;;4992445;28;20050;-80
2022/06/24 08:41:23;;;;;;;5.82;1.30;;;23.10;99.90;;;;;;4996047;28;20054;-80
2022/06/24 08:43:51;;;;;;;5.88;1.10;;;23.20;99.90;;;;;;4993784;28;20050;-79
2022/06/24 08:46:19;;;;;;;1.98;0.98;;;23.30;99.90;;;;;;4994550;28;20051;-79
2022/06/24 08:48:47;;;;;;;4.07;1.17;;;23.50;99.90;;;;;;4993679;28;20424;-80
2022/06/24 08:51:14;;;;;;;2.92;1.15;;;23.60;99.90;;;;;;4997052;28;20047;-81
2022/06/24 08:53:42;;;;;;;5.78;0.95;;;23.70;99.90;;;;;;4993274;28;20050;-81
2022/06/24 08:56:12;;;;;;;4.72;1.30;;;23.80;99.90;;;;;;4994807;28;20061;-80
2022/06/24 08:58:40;;;;;;;4.78;1.33;;;23.80;99.90;;;;;;4994945;28;20050;-80
2022/06/24 09:01:15;;;;;;;2.10;1.10;;;23.80;99.90;;;;;;4992677;28;20082;-79
2022/06/24 09:03:44;;;;;;;2.92;1.30;;;23.80;99.90;;;;;;4993434;28;20051;-80
2022/06/24 09:06:15;;;;;;;7.88;1.10;;;23.90;99.90;;;;;;4993786;28;20097;-82
2022/06/24 09:08:50;;;;;;;4.40;1.27;;;23.90;99.90;;;;;;4994337;28;20054;-80
2022/06/24 09:11:16;;;;;;;5.60;1.42;;;24.00;99.90;;;;;;4997067;28;20054;-83
2022/06/24 09:13:48;;;;;;;4.95;1.50;;;24.00;99.90;;;;;;4994291;28;20056;-80
2022/06/24 09:16:17;;;;;;;5.53;1.10;;;24.10;99.90;;;;;;4985652;28;20047;-79
2022/06/24 09:18:54;;;;;;;;;;;24.20;99.90;;;;;;4983363;28;20055;-80
2022/06/24 09:21:24;;;;;;;4.20;1.17;;;24.20;99.90;;;;;;4985675;28;19949;-81
2022/06/24 09:23:56;;;;;;;8.60;1.63;;;24.20;99.90;;;;;;4989508;28;20046;-79
2022/06/24 09:26:39;;;;;;;5.03;1.30;;;24.20;99.90;;;;;;4992971;28;20107;-81
2022/06/24 09:29:15;;;;;;;5.35;1.40;;;24.30;99.90;;;;;;4995873;28;20069;-81
2022/06/24 09:31:42;;;;;;;6.38;1.40;;;24.40;99.90;;;;;;4993670;28;20047;-81
2022/06/24 09:34:11;;;;;;;4.57;1.48;;;24.40;99.90;;;;;;4997166;28;20519;-80
2022/06/24 09:36:39;;;;;;;7.32;1.40;;;24.30;99.90;;;;;;4993831;28;20484;-81
2022/06/24 09:39:09;;;;;;;6.45;1.35;;;24.30;99.90;;;;;;4995951;28;20081;-80
2022/06/24 09:41:42;;;;;;;5.20;1.30;;;24.30;99.90;;;;;;4992952;28;20062;-80
2022/06/24 09:44:09;;;;;;;2.35;1.10;;;24.30;99.90;;;;;;5011471;28;20534;-81
2022/06/24 09:46:36;;;;;;;3.45;1.50;;;24.30;99.90;;;;;;4996336;28;20316;-79
2022/06/24 09:49:10;;;;;;;3.75;1.25;;;24.30;99.90;;;;;;4991357;28;20081;-81
2022/06/24 09:51:39;;;;;;;2.45;0.95;;;24.40;99.90;;;;;;4994164;28;20054;-82
2022/06/24 09:54:06;;;;;;;2.88;0.95;;;24.40;99.90;;;;;;4996167;28;20057;-81
2022/06/24 09:56:34;;;;;;;3.95;0.80;;;24.20;99.90;;;;;;4993341;28;20054;-81
2022/06/24 10:01:47;;;;;;;2.15;0.80;;;24.20;99.90;;;;;;4993198;28;20054;-80
2022/06/24 10:04:15;;;;;;;3.00;0.90;;;24.20;99.90;;;;;;4996700;28;20061;-81
2022/06/24 10:06:44;;;;;;;2.92;0.80;;;24.10;99.90;;;;;;4990716;28;20055;-80
2022/06/24 10:09:11;;;;;;;3.55;0.90;;;24.10;99.90;;;;;;4985705;28;20053;-77
2022/06/24 10:11:42;;;;;;;5.05;1.17;;;24.10;99.90;;;;;;4984860;28;20046;-78
2022/06/24 10:14:09;;;;;;;2.05;0.88;;;24.10;99.90;;;;;;4985966;28;20117;-78
2022/06/24 10:16:37;;;;;;;1.63;0.65;;;24.10;99.90;;;;;;4986360;28;20059;-78
2022/06/24 10:19:04;;;;;;;3.20;1.10;;;24.10;99.90;;;;;;4986380;28;20420;-78
2022/06/24 10:21:32;;;;;;;1.13;0.60;;;24.20;99.90;;;;;;4983650;28;20114;-79
2022/06/24 10:23:59;;;;;;;2.47;0.75;;;24.20;99.90;;;;;;4983011;28;20093;-79
2022/06/24 10:26:29;;;;;;;5.68;1.20;;;24.10;99.90;;;;;;4986785;28;20133;-79
2022/06/24 10:28:59;;;;;;;4.38;0.90;;;24.00;99.90;;;;;;4982970;28;20043;-78
2022/06/24 10:31:45;;;;;;;3.35;1.05;;;23.90;99.90;;;;;;4984428;28;20046;-80
2022/06/24 10:34:27;;;;;;;1.63;0.70;;;23.90;99.90;;;;;;4985721;28;20521;-77
2022/06/24 10:36:56;;;;;;;2.80;0.80;;;23.90;99.90;;;;;;4986538;28;20054;-79
2022/06/24 10:39:25;;;;;;;5.90;0.80;;;23.90;99.90;;;;;;5001043;28;20062;-79
2022/06/24 10:42:07;;;;;;;1.20;0.83;;;23.90;99.90;;;;;;4989004;28;20074;-80
2022/06/24 10:44:36;;;;;;;2.40;0.80;;;24.00;99.90;;;;;;4988390;28;20046;-79
2022/06/24 10:47:05;;;;;;;1.85;0.60;;;24.10;99.90;;;;;;4986015;28;20085;-77
2022/06/24 10:50:13;;;;;;;3.00;0.80;;;24.20;99.90;;;;;;5004673;28;20050;-79
2022/06/24 10:52:47;;;;;;;1.05;0.73;;;24.20;99.90;;;;;;4990878;28;20090;-79
2022/06/24 10:55:34;;;;;;;2.03;0.80;;;24.30;99.90;;;;;;5003287;28;20414;-78
2022/06/24 10:58:05;;;;;;;1.60;0.70;;;24.20;99.90;;;;;;4985696;28;20089;-80
2022/06/24 11:00:48;;;;;;;2.67;0.65;;;24.20;99.90;;;;;;4987692;28;20054;-79
2022/06/24 11:03:30;;;;;;;3.53;0.80;;;24.10;99.90;;;;;;4989533;28;20488;-80
2022/06/24 11:05:57;;;;;;;1.63;0.70;;;24.10;99.90;;;;;;4990351;28;20050;-80
2022/06/24 11:08:26;;;;;;;3.17;0.90;;;24.00;99.90;;;;;;4989635;28;20042;-79
2022/06/24 11:10:53;;;;;;;3.53;0.90;;;23.80;99.90;;;;;;4990452;28;20052;-79
2022/06/24 11:13:23;;;;;;;0.80;0.65;;;23.70;99.90;;;;;;4989031;28;20054;-79
2022/06/24 11:15:52;;;;;;;;;;;23.60;99.90;;;;;;4991728;28;20121;-80
2022/06/24 11:18:21;;;;;;;1.38;0.70;;;23.50;99.90;;;;;;4988778;28;19933;-79
2022/06/24 11:20:54;;;;;;;4.63;1.05;;;23.40;99.90;;;;;;4988637;28;20055;-79
2022/06/24 11:23:23;;;;;;;1.02;0.65;;;23.30;99.90;;;;;;4992566;28;20098;-80
2022/06/24 11:26:01;;;;;;;1.77;0.80;;;23.10;99.90;;;;;;4989229;28;20125;-83
2022/06/24 11:28:33;;;;;;;3.45;1.55;;;23.20;99.90;;;;;;4985979;28;20089;-78
2022/06/24 11:31:20;;;;;;;2.17;0.90;;;23.10;99.90;;;;;;4994327;28;20045;-78
2022/06/24 11:33:58;;;;;;;2.47;1.00;;;23.20;99.90;;;;;;4993925;28;20042;-77
2022/06/24 11:36:27;;;;;;;1.27;0.88;;;23.30;99.90;;;;;;4991528;28;20110;-79
2022/06/24 11:38:57;;;;;;;0.77;0.75;;;23.30;99.90;;;;;;4992486;28;20119;-78
2022/06/24 11:41:35;;;;;;;1.40;0.95;;;23.30;99.90;;;;;;4994386;28;20050;-78
2022/06/24 11:44:36;;;;;;;2.95;1.08;;;23.40;99.90;;;;;;4995763;28;20082;-79
2022/06/24 11:47:05;;;;;;;3.53;1.05;;;23.50;99.90;;;;;;4997998;28;20046;-81
2022/06/24 11:49:34;;;;;;;3.08;1.40;;;23.30;99.90;;;;;;4998137;28;20065;-78
2022/06/24 11:52:02;;;;;;;1.98;0.80;;;23.20;99.90;;;;;;4996266;28;20046;-78
2022/06/24 11:54:30;;;;;;;3.65;1.00;;;23.30;99.90;;;;;;4997724;28;20101;-78
2022/06/24 11:56:58;;;;;;;2.15;0.90;;;23.20;99.90;;;;;;4991391;28;20046;-78
2022/06/24 11:59:28;;;;;;;2.70;0.80;;;23.20;99.90;;;;;;5000529;28;20047;-79
2022/06/24 12:01:56;;;;;;;3.63;1.42;;;23.20;99.90;;;;;;4996134;28;20050;-78
2022/06/24 12:04:25;;;;;;;3.30;1.25;;;23.10;99.90;;;;;;4997179;28;20074;-78
2022/06/24 12:07:06;;;;;;;2.65;1.10;;;23.20;99.90;;;;;;4994788;28;20042;-78
2022/06/24 12:09:34;;;;;;;2.78;0.90;;;23.20;99.90;;;;;;4995446;28;20055;-80
2022/06/24 12:12:09;;;;;;;2.45;1.10;;;23.30;99.90;;;;;;4996385;28;20053;-80
2022/06/24 12:14:36;;;;;;;1.98;1.13;;;23.30;99.90;;;;;;4999354;28;20500;-80
2022/06/24 12:17:12;;;;;;;1.92;0.95;;;23.20;99.90;;;;;;4997938;28;20061;-80
2022/06/24 12:20:03;;;;;;;2.40;1.00;;;23.20;99.90;;;;;;5001648;28;20050;-80
2022/06/24 12:22:31;;;;;;;5.90;1.13;;;23.30;99.90;;;;;;5000698;28;20089;-81
2022/06/24 12:25:11;;;;;;;3.17;1.23;;;23.30;99.90;;;;;;4998509;28;20141;-81
2022/06/24 12:27:39;;;;;;;3.63;1.10;;;23.20;99.90;;;;;;5000328;28;20106;-81
2022/06/24 12:30:20;;;;;;;2.97;1.10;;;23.30;99.90;;;;;;4996972;28;20108;-80
2022/06/24 12:32:51;;;;;;;3.75;1.00;;;23.40;99.90;;;;;;4998942;28;20078;-81
2022/06/24 12:35:35;;;;;;;4.95;1.40;;;23.50;99.90;;;;;;4997557;28;20051;-79
2022/06/24 12:38:11;;;;;;;4.53;1.10;;;23.60;99.90;;;;;;4993783;28;20054;-78
2022/06/24 12:40:39;;;;;;;3.50;1.08;;;23.70;99.90;;;;;;4994681;28;20146;-79
2022/06/24 12:43:08;;;;;;;3.13;1.20;;;23.70;99.90;;;;;;4996602;28;20050;-80
2022/06/24 12:45:39;;;;;;;1.60;1.00;;;23.80;99.90;;;;;;5001067;28;20046;-81
2022/06/24 12:51:00;;;;;;;1.15;0.90;;;23.70;99.90;;;;;;4995826;28;20043;-78
2022/06/24 12:53:27;;;;;;;2.53;0.73;;;23.70;99.90;;;;;;5005224;28;20054;-81
2022/06/24 12:55:54;;;;;;;1.90;0.90;;;23.70;99.90;;;;;;5003779;28;20062;-78
2022/06/24 12:58:21;;;;;;;2.75;1.27;;;23.70;99.90;;;;;;4997806;28;20051;-80
2022/06/24 13:00:48;;;;;;;3.53;0.80;;;23.80;99.90;;;;;;4996537;28;20051;-79
2022/06/24 13:03:17;;;;;;;1.63;0.90;;;23.90;99.90;;;;;;4996494;28;20061;-79
2022/06/24 13:05:44;;;;;;;1.75;0.98;;;23.90;99.90;;;;;;4997627;28;20078;-79
2022/06/24 13:08:11;;;;;;;1.98;1.17;;;23.90;99.90;;;;;;4998031;28;20046;-78
2022/06/24 13:10:38;;;;;;;2.63;0.93;;;23.80;99.90;;;;;;4997565;28;20046;-78
2022/06/24 13:13:05;;;;;;;2.20;1.10;;;23.70;99.90;;;;;;4994092;28;20270;-79